EDHL Airport Information

Runway Information
Runway 07 Length 6896 ft width 197 ft
Elevation 53 ft Threshold 984 ft Heading 72
Runway 25 Length 6896 ft Width 197 ft
Elevation 47 ft Threshold ft Heading 252
Airport Frequencies
Type AFIS Name BREMEN INF Frequency 125.1 MHZ
Type ATIS Name ATIS Frequency 119.925 MHZ
Type GND Name GND Frequency 121.775 MHZ
Type INFO Name INFO Frequency 128.7 MHZ
Type RDR Name BREMEN RAD Frequency 124.225 MHZ
Type TWR Name TWR Frequency 128.7 MHZ
Airport Navaids
Type VOR Name Lubeck Frequency 110600 KHZ
Type DME Name Lubeck Blankensee Frequency 115650 KHZ
Type NDB Name Lubeck Blankensee Frequency 394 KHZ
Airport Weather Information & NOTAM
ADDS - METARS form results

(0835 UTC 07 July 2022)
Data provider http://aviationweather.gov/metar/data/
 
METAR text: EDHL 070820Z 28008KT 230V320 9999 -RA BKN011 BKN022 OVC027 18/15 Q1013
Conditions at: EDHL (LUEBECK/BLANKENS, DE) observed 0820 UTC 07 July 2022
Temperature: 18.0°C (64°F)
Dewpoint: 15.0°C (59°F) [RH = 83%]
Pressure (altimeter): 29.91 inches Hg (1013.0 mb)
Winds: from the W (280 degrees) at 9 MPH (8 knots; 4.1 m/s)
Visibility: 6 or more miles (10+ km)
Ceiling: 1100 feet AGL
Clouds: broken clouds at 1100 feet AGL
broken clouds at 2200 feet AGL
overcast cloud deck at 2700 feet AGL
Weather: -RA  (light rain)

METAR text: EDHL 070750Z 29007KT 230V330 9999 FEW009 SCT011 BKN022 18/16 Q1013
Conditions at: EDHL (LUEBECK/BLANKENS, DE) observed 0750 UTC 07 July 2022
Temperature: 18.0°C (64°F)
Dewpoint: 16.0°C (61°F) [RH = 88%]
Pressure (altimeter): 29.91 inches Hg (1013.0 mb)
Winds: from the WNW (290 degrees) at 8 MPH (7 knots; 3.6 m/s)
Visibility: 6 or more miles (10+ km)
Ceiling: 2200 feet AGL
Clouds: few clouds at 900 feet AGL
scattered clouds at 1100 feet AGL
broken clouds at 2200 feet AGL
Weather: no significant weather observed at this time

Forecast for: EDHL (LUEBECK/BLANKENS, DE)
Text: TAF EDHL 070800Z 0709/0718 29010KT 9999 BKN013
Forecast period: 0900 to 1800 UTC 07 July 2022
Forecast type: FROM: standard forecast or significant change
Winds: from the WNW (290 degrees) at 12 MPH (10 knots; 5.1 m/s)
Visibility: 6 or more miles (10+ km)
Ceiling: 1300 feet AGL
Clouds: broken clouds at 1300 feet AGL
Weather: no significant weather forecast for this period
Text: BECMG 0709/0712 30015G25KT SCT015 BKN025
Forecast period: 0900 to 1800 UTC 07 July 2022
Forecast type: BECOMING: Conditions expected to become as follows by 1200 UTC 07 July 2022
Winds: from the WNW (300 degrees) at 17 MPH (15 knots; 7.7 m/s)
gusting to 29 MPH (25 knots; 12.9 m/s)
Visibility: 6 or more miles (10+ km)
Ceiling: 2500 feet AGL
Clouds: scattered clouds at 1500 feet AGL
broken clouds at 2500 feet AGL
Weather: no significant weather forecast for this period